Time;durP1;ratioP1;P1;durP2;ratioP2;P2;SDS_P1;SDS_P2;PMS_P1;PMS_P2;Temp;Humidity;BMP_temperature;BMP_pressure;BME280_temperature;BME280_humidity;BME280_pressure;Samples;Min_cycle;Max_cycle;Signal;HPM_P1;HPM_P2
2022/12/22 03:27:19;;;;;;;0.70;0.70;;;;;;;-0.52;100.00;99782.00;5051925;28;20219;-63
2022/12/22 03:29:46;;;;;;;0.70;0.70;;;;;;;-0.53;100.00;99785.31;5051861;28;20232;-63
2022/12/22 03:32:13;;;;;;;0.80;0.80;;;;;;;-0.54;100.00;99783.59;5049484;28;20225;-62
2022/12/22 03:34:41;;;;;;;0.70;0.70;;;;;;;-0.56;100.00;99780.22;5051208;28;20273;-63
2022/12/22 03:37:08;;;;;;;0.77;0.77;;;;;;;-0.54;100.00;99773.53;5051685;28;20707;-62
2022/12/22 03:39:35;;;;;;;1.37;1.37;;;;;;;-0.55;100.00;99771.84;5051893;28;20207;-62
2022/12/22 03:47:31;;;;;;;0.63;0.63;;;;;;;-0.65;100.00;99782.56;5051480;28;20200;-63
2022/12/22 03:49:59;;;;;;;0.60;0.60;;;;;;;-0.70;100.00;99776.56;5052172;28;20211;-63
2022/12/22 03:52:26;;;;;;;0.60;0.60;;;;;;;-0.74;100.00;99774.78;5051225;28;20220;-63
2022/12/22 03:54:53;;;;;;;0.70;0.70;;;;;;;-0.74;100.00;99774.78;5051434;28;20267;-63
2022/12/22 03:57:19;;;;;;;1.00;1.00;;;;;;;-0.73;100.00;99767.28;5051217;28;20264;-62
2022/12/22 03:59:46;;;;;;;4.10;1.37;;;;;;;-0.77;100.00;99759.63;5051236;28;20687;-63
2022/12/22 04:02:13;;;;;;;0.70;0.70;;;;;;;-0.84;100.00;99756.13;5051176;28;20225;-63
2022/12/22 04:04:40;;;;;;;0.70;0.70;;;;;;;-0.75;100.00;99770.59;5051019;28;20205;-63
2022/12/22 04:07:08;;;;;;;0.80;0.80;;;;;;;-0.77;100.00;99765.50;5051201;28;20256;-63
2022/12/22 04:12:52;;;;;;;0.80;0.80;;;;;;;-0.77;100.00;99764.66;5051178;28;20592;-63
2022/12/22 04:15:07;;;;;;;0.80;0.80;;;;;;;-0.78;100.00;99758.81;5051230;28;20258;-62
2022/12/22 04:17:34;;;;;;;1.03;1.03;;;;;;;-0.76;100.00;99758.81;5051339;28;20219;-62
2022/12/22 04:20:01;;;;;;;0.70;0.70;;;;;;;-0.75;100.00;99760.53;5050819;28;20207;-62
2022/12/22 04:22:29;;;;;;;0.70;0.70;;;;;;;-0.77;100.00;99755.44;5050455;28;20193;-63
2022/12/22 04:24:56;;;;;;;1.03;1.03;;;;;;;-0.78;100.00;99755.44;5050780;28;20196;-63
2022/12/22 04:27:23;;;;;;;1.00;1.00;;;;;;;-0.81;100.00;99747.81;5051106;28;20205;-63
2022/12/22 04:29:49;;;;;;;0.70;0.70;;;;;;;-0.86;100.00;99754.41;5050960;28;20193;-63
2022/12/22 04:32:16;;;;;;;0.80;0.80;;;;;;;-0.90;100.00;99747.59;5050652;28;20225;-63
2022/12/22 04:34:43;;;;;;;0.83;0.83;;;;;;;-0.87;100.00;99752.72;5050803;28;20199;-62
2022/12/22 04:37:10;;;;;;;0.80;0.80;;;;;;;-0.86;100.00;99757.78;5050289;28;20197;-63
2022/12/22 04:39:38;;;;;;;1.17;1.17;;;;;;;-0.86;100.00;99765.31;5050675;28;20200;-63
2022/12/22 04:42:05;;;;;;;0.77;0.77;;;;;;;-0.83;100.00;99756.97;5050513;28;20192;-63
2022/12/22 04:44:32;;;;;;;0.80;0.80;;;;;;;-0.83;100.00;99756.97;5050750;28;20266;-63
2022/12/22 04:46:58;;;;;;;0.70;0.70;;;;;;;-0.85;100.00;99761.16;5050504;28;20581;-62
2022/12/22 04:49:25;;;;;;;0.90;0.90;;;;;;;-0.87;100.00;99761.09;5050335;28;20196;-63
2022/12/22 04:51:52;;;;;;;0.80;0.80;;;;;;;-0.91;100.00;99761.03;5050327;28;20229;-62
2022/12/22 04:54:19;;;;;;;0.90;0.90;;;;;;;-0.91;100.00;99758.50;5050577;28;20200;-62
2022/12/22 04:56:47;;;;;;;0.70;0.70;;;;;;;-0.89;100.00;99764.41;5050519;28;20203;-63
2022/12/22 04:59:13;;;;;;;0.70;0.70;;;;;;;-0.91;100.00;99756.00;5049692;28;20201;-63
2022/12/22 05:01:40;;;;;;;0.80;0.80;;;;;;;-0.90;100.00;99762.69;5049967;28;20278;-62
2022/12/22 05:04:07;;;;;;;0.80;0.80;;;;;;;-0.99;100.00;99742.38;5050640;28;20201;-63
2022/12/22 05:06:34;;;;;;;0.93;0.93;;;;;;;-1.00;100.00;99745.75;5050393;28;20575;-63
2022/12/22 05:09:01;;;;;;;0.80;0.80;;;;;;;-0.92;100.00;99759.31;5049452;28;20197;-62
2022/12/22 05:11:28;;;;;;;0.80;0.80;;;;;;;-0.90;100.00;99762.69;5050615;28;20664;-63
2022/12/22 05:13:56;;;;;;;0.80;0.80;;;;;;;-0.95;100.00;99750.03;5050003;28;20200;-63
2022/12/22 05:16:22;;;;;;;0.80;0.80;;;;;;;-0.95;100.00;99755.06;5050175;28;20197;-62
2022/12/22 05:18:49;;;;;;;0.73;0.73;;;;;;;-0.95;100.00;99759.25;5050125;28;20209;-62
2022/12/22 05:21:18;;;;;;;0.73;0.73;;;;;;;-0.97;100.00;99761.75;5050683;28;20669;-62
2022/12/22 05:23:45;;;;;;;0.80;0.80;;;;;;;-0.98;100.00;99757.53;5048205;28;20205;-63
2022/12/22 05:26:14;;;;;;;0.80;0.80;;;;;;;-0.97;100.00;99755.88;5034394;28;20217;-62
2022/12/22 05:28:42;;;;;;;2.93;2.60;;;;;;;-0.98;100.00;99761.69;5038687;28;20616;-63
2022/12/22 05:31:14;;;;;;;0.80;0.80;;;;;;;-0.97;100.00;99755.88;5046872;28;20208;-62
2022/12/22 05:33:41;;;;;;;0.70;0.70;;;;;;;-1.01;100.00;99765.00;5049216;28;20220;-62
2022/12/22 05:36:08;;;;;;;0.93;0.93;;;;;;;-1.05;100.00;99763.25;5053891;28;21500;-62
2022/12/22 05:38:35;;;;;;;1.17;1.17;;;;;;;-1.15;100.00;99746.25;5051621;28;20262;-62
2022/12/22 05:41:02;;;;;;;1.97;1.97;;;;;;;-1.06;100.00;99756.50;5054165;28;20692;-63
2022/12/22 05:43:29;;;;;;;0.87;0.87;;;;;;;-1.03;100.00;99756.56;5054079;28;20254;-62
2022/12/22 05:45:57;;;;;;;0.70;0.70;;;;;;;-1.03;100.00;99765.81;5054162;28;20201;-63
2022/12/22 05:48:25;;;;;;;0.70;0.70;;;;;;;-1.03;100.00;99761.59;5054099;28;20294;-63
2022/12/22 05:50:52;;;;;;;0.70;0.70;;;;;;;-1.03;100.00;99756.56;5053244;28;20193;-62
2022/12/22 05:53:19;;;;;;;0.70;0.70;;;;;;;-1.04;100.00;99764.94;5053502;28;20227;-63
2022/12/22 05:55:45;;;;;;;0.80;0.80;;;;;;;-1.10;100.00;99760.59;5053874;28;20254;-62
2022/12/22 05:58:12;;;;;;;0.70;0.70;;;;;;;-1.03;100.00;99770.84;5054167;28;20209;-62
2022/12/22 06:00:39;;;;;;;0.70;0.70;;;;;;;-1.08;100.00;99759.00;5049063;28;20237;-62
2022/12/22 06:03:06;;;;;;;0.70;0.70;;;;;;;-1.07;100.00;99763.19;5051396;28;20205;-62
2022/12/22 06:05:34;;;;;;;0.70;0.70;;;;;;;-1.10;100.00;99760.59;5052457;28;20197;-62
2022/12/22 06:08:01;;;;;;;0.70;0.70;;;;;;;-1.10;100.00;99754.75;5053120;28;20192;-62
2022/12/22 06:10:27;;;;;;;0.70;0.70;;;;;;;-1.10;100.00;99755.56;5053397;28;20677;-62
2022/12/22 06:12:54;;;;;;;0.70;0.70;;;;;;;-1.13;100.00;99760.53;5053484;28;20219;-62
2022/12/22 06:15:21;;;;;;;0.50;0.50;;;;;;;-1.16;100.00;99755.44;5051808;28;20201;-62
2022/12/22 06:17:48;;;;;;;0.70;0.70;;;;;;;-1.11;100.00;99755.56;5052872;28;20205;-62
2022/12/22 06:20:15;;;;;;;0.90;0.90;;;;;;;-1.07;100.00;99764.88;5053038;28;20262;-62
2022/12/22 06:22:43;;;;;;;0.67;0.67;;;;;;;-1.08;100.00;99770.72;5053329;28;20197;-62
2022/12/22 06:25:10;;;;;;;0.70;0.70;;;;;;;-1.07;100.00;99775.78;5051259;28;20562;-62
2022/12/22 06:27:36;;;;;;;0.80;0.80;;;;;;;-1.08;100.00;99769.06;5051570;28;20580;-62
2022/12/22 06:30:04;;;;;;;0.80;0.80;;;;;;;-1.04;100.00;99775.00;5051907;28;20201;-63
2022/12/22 06:32:31;;;;;;;1.13;1.13;;;;;;;-1.10;100.00;99767.34;5049706;28;20708;-62
2022/12/22 06:34:57;;;;;;;0.80;0.80;;;;;;;-0.99;100.00;99780.97;5048520;28;20236;-62
2022/12/22 06:37:24;;;;;;;0.80;0.80;;;;;;;-0.96;100.00;99783.56;5050379;28;20201;-62
2022/12/22 06:39:52;;;;;;;0.60;0.60;;;;;;;-0.91;100.00;99783.66;5049222;28;20209;-62
2022/12/22 06:45:04;;;;;;;1.53;1.53;;;;;;;-0.84;100.00;99781.28;5051083;28;20203;-62
2022/12/22 06:47:31;;;;;;;0.80;0.80;;;;;;;-0.79;100.00;99781.41;5049393;28;20208;-62
2022/12/22 06:49:58;;;;;;;0.80;0.80;;;;;;;-0.78;100.00;99778.94;5050825;28;20201;-62
2022/12/22 06:52:25;;;;;;;0.80;0.80;;;;;;;-0.75;100.00;99778.16;5049543;28;20718;-62
2022/12/22 06:54:53;;;;;;;0.80;0.80;;;;;;;-0.73;100.00;99781.53;5049786;28;20209;-62
2022/12/22 06:57:20;;;;;;;0.77;0.77;;;;;;;-0.71;100.00;99784.94;5049509;28;20209;-62
2022/12/22 06:59:46;;;;;;;0.60;0.60;;;;;;;-0.74;100.00;99785.72;5051244;28;20258;-62
2022/12/22 07:02:13;;;;;;;0.53;0.53;;;;;;;-0.71;100.00;99789.97;5050838;28;20663;-62
2022/12/22 07:04:40;;;;;;;0.70;0.70;;;;;;;-0.71;100.00;99785.78;5050963;28;20207;-62
2022/12/22 07:07:07;;;;;;;0.70;0.70;;;;;;;-0.64;100.00;99776.69;5049949;28;20212;-62
2022/12/22 07:09:34;;;;;;;1.30;1.30;;;;;;;-0.77;100.00;99750.41;5048237;28;21001;-62
2022/12/22 07:12:02;;;;;;;0.70;0.70;;;;;;;-0.60;100.00;99775.94;5049739;28;20193;-62
2022/12/22 07:14:29;;;;;;;0.50;0.50;;;;;;;-0.56;100.00;99777.69;5047448;28;20228;-62
2022/12/22 07:16:55;;;;;;;0.93;0.93;;;;;;;-0.52;100.00;99782.00;5050993;28;20201;-62
2022/12/22 07:19:22;;;;;;;0.77;0.77;;;;;;;-0.50;100.00;99779.47;5049634;28;20603;-62
2022/12/22 07:21:50;;;;;;;0.70;0.70;;;;;;;-0.51;100.00;99778.63;5050665;28;20205;-62
2022/12/22 07:24:22;;;;;;;0.50;0.50;;;;;;;-0.45;100.00;99777.91;5051643;28;20204;-62
2022/12/22 07:26:49;;;;;;;0.80;0.80;;;;;;;-0.42;100.00;99778.81;5050935;28;20204;-62
2022/12/22 07:29:18;;;;;;;0.70;0.70;;;;;;;-0.36;100.00;99778.94;5050865;28;20205;-62
2022/12/22 07:31:45;;;;;;;0.70;0.70;;;;;;;-0.35;100.00;99770.56;5047946;28;20652;-62
2022/12/22 07:34:12;;;;;;;0.80;0.80;;;;;;;-0.30;100.00;99776.53;5050400;28;20224;-62
2022/12/22 07:36:39;;;;;;;0.77;0.77;;;;;;;-0.25;100.00;99771.56;5048540;28;20202;-62
2022/12/22 07:39:06;;;;;;;0.70;0.70;;;;;;;-0.24;100.00;99771.63;5050801;28;20208;-62
2022/12/22 07:44:18;;;;;;;0.60;0.60;;;;;;;-0.15;100.00;99784.38;5049417;28;20207;-62
2022/12/22 07:46:45;;;;;;;0.97;0.97;;;;;;;-0.15;100.00;99781.00;5050456;28;20196;-62
2022/12/22 07:51:57;;;;;;;0.73;0.73;;;;;;;-0.08;100.00;99781.16;5049804;28;20203;-62
2022/12/22 07:54:25;;;;;;;0.70;0.70;;;;;;;-0.17;100.00;99750.75;5050741;28;20236;-62
2022/12/22 07:56:52;;;;;;;0.70;0.70;;;;;;;0.07;100.00;99784.75;5048153;28;20197;-62
2022/12/22 07:59:20;;;;;;;0.70;0.70;;;;;;;0.13;100.00;99779.84;5049562;28;20201;-63
2022/12/22 08:01:47;;;;;;;0.70;0.70;;;;;;;0.17;100.00;99781.56;5048281;28;20679;-62
2022/12/22 08:04:15;;;;;;;0.60;0.60;;;;;;;0.27;100.00;99778.41;5050384;28;20669;-62
2022/12/22 08:06:42;;;;;;;0.70;0.70;;;;;;;0.33;100.00;99768.41;5049654;28;20204;-62
2022/12/22 08:09:10;;;;;;;0.80;0.80;;;;;;;0.31;100.00;99743.19;5049344;28;20204;-63
2022/12/22 08:11:36;;;;;;;0.63;0.63;;;;;;;0.51;100.00;99766.19;5049795;28;20556;-63
2022/12/22 08:14:03;;;;;;;2.20;2.07;;;;;;;0.60;100.00;99763.81;5049850;28;20216;-63
2022/12/22 08:16:31;;;;;;;0.80;0.80;;;;;;;0.66;100.00;99774.00;5047733;28;20278;-63
2022/12/22 08:18:58;;;;;;;1.00;1.00;;;;;;;0.74;100.00;99762.34;5047764;28;20258;-63
2022/12/22 08:21:25;;;;;;;0.60;0.60;;;;;;;0.87;100.00;99769.25;5047700;28;20588;-63
2022/12/22 08:23:52;;;;;;;0.80;0.80;;;;;;;0.96;100.00;99769.41;5049231;28;20204;-62
2022/12/22 08:26:24;;;;;;;0.80;0.80;;;;;;;1.04;100.00;99767.81;5049794;28;20197;-67
2022/12/22 08:28:56;;;;;;;0.67;0.67;;;;;;;1.14;100.00;99767.94;5047223;28;20585;-66
2022/12/22 08:31:27;;;;;;;0.60;0.60;;;;;;;1.19;100.00;99772.25;5050862;28;20608;-66
2022/12/22 08:33:57;;;;;;;1.27;1.27;;;;;;;1.29;100.00;99768.16;5050797;28;20213;-66
2022/12/22 08:36:24;;;;;;;0.50;0.50;;;;;;;1.31;100.00;99761.44;5048735;28;20205;-63
2022/12/22 08:38:51;;;;;;;0.60;0.60;;;;;;;1.42;100.00;99762.44;5047081;28;20201;-64
2022/12/22 08:41:48;;;;;;;0.80;0.80;;;;;;;1.55;100.00;99756.69;5046896;28;20212;-63
2022/12/22 08:44:06;;;;;;;0.70;0.70;;;;;;;1.60;100.00;99757.59;5045851;28;20232;-64
2022/12/22 08:46:33;;;;;;;0.70;0.70;;;;;;;1.69;100.00;99751.78;5046987;28;20267;-64
2022/12/22 08:49:01;;;;;;;0.60;0.60;;;;;;;1.76;100.00;99751.88;5048305;28;20201;-63
2022/12/22 08:51:28;;;;;;;10.20;3.73;;;;;;;1.81;100.00;99745.16;5049279;28;20627;-64
2022/12/22 08:53:55;;;;;;;4.63;2.30;;;;;;;1.76;100.00;99731.66;5048906;28;20224;-63
2022/12/22 08:56:22;;;;;;;2.30;2.10;;;;;;;1.95;100.00;99733.53;5049898;28;20208;-64
2022/12/22 08:58:49;;;;;;;1.17;1.17;;;;;;;2.06;100.00;99737.00;5046745;28;20216;-64
2022/12/22 09:01:17;;;;;;;0.90;0.90;;;;;;;2.19;100.00;99732.06;5049945;28;20297;-64
2022/12/22 09:03:48;;;;;;;0.67;0.67;;;;;;;2.27;100.00;99728.75;5048736;28;20214;-64
2022/12/22 09:06:16;;;;;;;0.50;0.50;;;;;;;2.35;100.00;99728.81;5048689;28;20758;-64
2022/12/22 09:08:43;;;;;;;0.97;0.97;;;;;;;2.44;100.00;99724.69;5047671;28;20216;-64
2022/12/22 09:11:10;;;;;;;0.80;0.80;;;;;;;2.46;100.00;99706.97;5048038;28;20206;-64
2022/12/22 09:13:37;;;;;;;1.00;1.00;;;;;;;2.73;100.00;99717.28;5048204;28;20213;-64
2022/12/22 09:16:05;;;;;;;0.50;0.50;;;;;;;2.82;100.00;99719.00;5048907;28;20724;-64
2022/12/22 09:18:32;;;;;;;0.70;0.70;;;;;;;2.91;100.00;99719.91;5049015;28;20212;-64
2022/12/22 09:20:59;;;;;;;0.83;0.83;;;;;;;3.01;100.00;99713.19;5045465;28;20196;-64
2022/12/22 09:23:27;;;;;;;0.60;0.60;;;;;;;3.12;100.00;99711.59;5047253;28;20588;-64
2022/12/22 09:25:54;;;;;;;0.50;0.50;;;;;;;3.27;100.00;99711.63;5046192;28;20201;-64
2022/12/22 09:28:21;;;;;;;0.57;0.57;;;;;;;3.35;100.00;99710.00;5047946;28;20204;-64
2022/12/22 09:30:49;;;;;;;0.60;0.60;;;;;;;3.39;100.00;99705.78;5045248;28;20258;-64
2022/12/22 09:33:16;;;;;;;0.60;0.60;;;;;;;3.57;100.00;99704.16;5049545;28;20224;-64
2022/12/22 09:35:43;;;;;;;0.63;0.63;;;;;;;3.64;100.00;99693.19;5049403;28;20205;-64
2022/12/22 09:38:10;;;;;;;0.53;0.53;;;;;;;3.73;100.00;99697.44;5049551;28;20196;-64
2022/12/22 09:40:38;;;;;;;0.57;0.57;;;;;;;3.87;100.00;99695.78;5049338;28;20200;-64
2022/12/22 09:43:05;;;;;;;2.93;1.73;;;;;;;3.96;100.00;99694.94;5049698;28;20197;-64
2022/12/22 09:45:32;;;;;;;0.60;0.60;;;;;;;4.04;100.00;99689.00;5049094;28;20205;-64
2022/12/22 09:48:02;;;;;;;0.50;0.50;;;;;;;4.04;100.00;99690.72;5049191;28;20201;-64
2022/12/22 09:50:32;;;;;;;0.53;0.53;;;;;;;4.15;100.00;99684.78;5045600;28;20207;-64
2022/12/22 09:53:02;;;;;;;0.87;0.87;;;;;;;4.21;100.00;99682.25;5048253;28;20205;-64
2022/12/22 09:55:40;;;;;;;0.53;0.53;;;;;;;4.34;100.00;99682.22;5048912;28;20744;-66
2022/12/22 09:58:17;;;;;;;0.90;0.90;;;;;;;4.39;100.00;99678.03;5046575;28;20208;-65
2022/12/22 10:00:47;;;;;;;0.80;0.80;;;;;;;4.49;100.00;99674.63;5047654;28;20327;-65
2022/12/22 10:03:30;;;;;;;0.73;0.73;;;;;;;4.57;100.00;99675.44;5047021;28;20204;-65
2022/12/22 10:06:04;;;;;;;0.60;0.60;;;;;;;4.62;99.04;99668.69;5046274;28;20258;-65
2022/12/22 10:08:35;;;;;;;0.57;0.57;;;;;;;4.69;98.51;99665.25;5045183;28;20665;-64
2022/12/22 10:11:03;;;;;;;0.50;0.50;;;;;;;4.74;98.15;99653.41;5043779;28;20204;-65
2022/12/22 10:13:30;;;;;;;0.63;0.63;;;;;;;4.82;97.99;99659.28;5047970;28;20712;-64
2022/12/22 10:15:57;;;;;;;0.57;0.57;;;;;;;4.88;98.13;99656.72;5048587;28;20208;-64
2022/12/22 10:18:27;;;;;;;0.57;0.57;;;;;;;4.93;97.61;99649.97;5046508;28;20322;-65
2022/12/22 10:21:10;;;;;;;1.17;1.17;;;;;;;4.85;97.26;99626.25;5047869;28;20196;-65
2022/12/22 10:23:39;;;;;;;0.50;0.50;;;;;;;4.92;96.66;99635.56;5047764;28;20209;-65
2022/12/22 10:26:12;;;;;;;0.60;0.60;;;;;;;5.05;96.20;99638.91;5049904;28;20254;-64
2022/12/22 10:28:42;;;;;;;0.67;0.67;;;;;;;5.08;96.84;99638.88;5048536;28;20200;-65
2022/12/22 10:31:18;;;;;;;1.40;1.40;;;;;;;5.19;96.51;99632.91;5051706;28;20217;-65
2022/12/22 10:33:47;;;;;;;0.53;0.53;;;;;;;5.20;96.29;99629.50;5052231;28;20653;-65
2022/12/22 10:36:15;;;;;;;0.67;0.67;;;;;;;5.26;95.98;99624.41;5051885;28;20204;-65
2022/12/22 10:38:56;;;;;;;1.37;0.63;;;;;;;5.30;96.86;99620.13;5051749;28;20301;-65
2022/12/22 10:41:26;;;;;;;0.53;0.53;;;;;;;5.37;97.09;99620.94;5050244;28;20208;-65
2022/12/22 10:43:55;;;;;;;0.60;0.60;;;;;;;5.38;97.77;99613.31;5046745;28;20262;-64
2022/12/22 10:46:32;;;;;;;0.50;0.50;;;;;;;5.37;97.80;99613.31;5044833;28;20208;-64
2022/12/22 10:49:14;;;;;;;0.50;0.50;;;;;;;5.44;96.54;99609.88;5050005;28;20742;-64
2022/12/22 10:51:47;;;;;;;0.60;0.60;;;;;;;5.50;97.60;99602.22;5044896;28;20209;-64
2022/12/22 10:54:32;;;;;;;0.57;0.57;;;;;;;5.56;97.39;99597.09;5050199;28;20217;-64
2022/12/22 10:57:06;;;;;;;0.53;0.53;;;;;;;5.62;96.90;99589.44;5050856;28;20204;-67
2022/12/22 10:59:34;;;;;;;0.53;0.53;;;;;;;5.61;96.55;99580.13;5048243;28;20200;-65
2022/12/22 11:02:36;;;;;;;1.07;1.00;;;;;;;5.66;95.74;99580.91;5050546;28;20235;-66
2022/12/22 11:05:11;;;;;;;0.90;0.90;;;;;;;5.79;95.25;99574.88;4989762;28;20198;-65
2022/12/22 11:07:39;;;;;;;12.37;1.40;;;;;;;5.78;95.09;99568.13;4985512;28;20214;-65
2022/12/22 11:10:18;;;;;;;0.67;0.67;;;;;;;5.89;94.32;99573.13;5021675;28;20619;-65
2022/12/22 11:13:24;;;;;;;0.83;0.83;;;;;;;5.85;94.40;99563.81;5051087;28;20258;-65
2022/12/22 11:15:59;;;;;;;0.60;0.60;;;;;;;5.87;93.21;99562.97;4988602;28;20203;-65
2022/12/22 11:18:39;;;;;;;0.60;0.60;;;;;;;5.95;92.62;99558.66;5040598;28;20213;-64
2022/12/22 11:21:14;;;;;;;1.13;1.07;;;;;;;5.90;92.16;99542.59;5049346;28;20200;-65
2022/12/22 11:23:53;;;;;;;0.50;0.50;;;;;;;5.97;92.99;99548.47;5049500;28;20200;-65
2022/12/22 11:26:28;;;;;;;0.80;0.80;;;;;;;6.06;92.96;99545.84;5048002;28;20691;-65
2022/12/22 11:29:20;;;;;;;0.60;0.60;;;;;;;6.13;90.81;99550.88;5050932;28;20212;-63
2022/12/22 11:32:06;;;;;;;0.53;0.53;;;;;;;6.20;91.43;99549.91;5049562;28;20680;-65
2022/12/22 11:34:50;;;;;;;0.53;0.53;;;;;;;6.26;90.54;99552.44;5048935;28;20703;-65
2022/12/22 11:37:29;;;;;;;0.40;0.40;;;;;;;6.30;90.29;99541.34;5049400;28;20618;-65
2022/12/22 11:40:03;;;;;;;0.60;0.60;;;;;;;6.33;87.72;99543.84;5049414;28;20200;-64
2022/12/22 11:42:52;;;;;;;0.80;0.80;;;;;;;6.41;87.54;99540.38;5050041;28;20824;-62
2022/12/22 11:45:40;;;;;;;0.83;0.83;;;;;;;6.50;86.82;99545.34;5049552;28;20235;-62
2022/12/22 11:48:15;;;;;;;0.67;0.67;;;;;;;6.52;83.97;99548.75;5050498;28;20208;-61
2022/12/22 11:50:45;;;;;;;0.93;0.93;;;;;;;6.50;84.82;99547.91;5051071;28;20672;-62
2022/12/22 11:53:51;;;;;;;0.70;0.70;;;;;;;6.45;84.18;99537.78;5050842;28;20227;-62
2022/12/22 11:56:23;;;;;;;0.50;0.50;;;;;;;6.53;85.16;99535.13;5050324;28;20204;-62
2022/12/22 11:59:07;;;;;;;0.40;0.40;;;;;;;6.61;83.52;99541.84;5048774;28;20258;-62
2022/12/22 12:01:49;;;;;;;0.50;0.50;;;;;;;6.70;82.60;99539.19;5048552;28;20701;-62
2022/12/22 12:04:55;;;;;;;0.73;0.73;;;;;;;6.67;81.98;99538.38;5047083;28;20211;-62
2022/12/22 12:07:27;;;;;;;0.50;0.50;;;;;;;6.67;82.53;99540.91;5050519;28;20212;-62
2022/12/22 12:10:05;;;;;;;0.60;0.60;;;;;;;6.70;82.73;99533.22;5050205;28;20250;-62
2022/12/22 12:12:42;;;;;;;0.67;0.67;;;;;;;6.74;82.56;99529.78;5048897;28;20207;-62
2022/12/22 12:15:22;;;;;;;1.07;1.07;;;;;;;6.72;81.62;99527.25;5050528;28;20244;-62
2022/12/22 12:18:07;;;;;;;0.70;0.70;;;;;;;6.73;82.27;99523.84;5050592;28;20204;-62
2022/12/22 12:20:46;;;;;;;0.80;0.80;;;;;;;6.69;83.27;99516.25;5048701;28;20266;-61
2022/12/22 12:23:27;;;;;;;0.60;0.60;;;;;;;6.78;83.50;99517.00;5049076;28;20670;-62
2022/12/22 12:26:06;;;;;;;0.50;0.50;;;;;;;6.86;85.08;99514.34;5049457;28;20215;-62
2022/12/22 12:28:43;;;;;;;0.47;0.47;;;;;;;6.95;86.61;99514.22;5050765;28;20200;-62
2022/12/22 12:31:14;;;;;;;0.40;0.40;;;;;;;6.92;87.16;99514.25;5050869;28;20270;-62
2022/12/22 12:33:48;;;;;;;0.83;0.83;;;;;;;6.94;86.08;99510.00;5049991;28;20813;-62
2022/12/22 12:36:21;;;;;;;0.60;0.60;;;;;;;6.91;85.09;99507.50;5048107;28;20250;-62
2022/12/22 12:38:56;;;;;;;0.60;0.60;;;;;;;6.88;84.93;99502.44;5050272;28;20200;-61
2022/12/22 12:41:27;;;;;;;1.00;1.00;;;;;;;6.89;85.63;99501.56;5050555;28;20200;-62
2022/12/22 12:43:56;;;;;;;0.70;0.70;;;;;;;6.85;85.33;99507.53;5049515;28;20692;-62
2022/12/22 12:46:52;;;;;;;0.53;0.53;;;;;;;6.90;85.17;99516.00;5050442;28;20263;-62
2022/12/22 12:49:58;;;;;;;0.73;0.73;;;;;;;6.93;84.93;99515.09;5050081;28;20204;-62
2022/12/22 12:53:13;;;;;;;0.50;0.50;;;;;;;7.00;84.55;99515.00;5047908;28;20663;-62
2022/12/22 12:55:59;;;;;;;0.63;0.63;;;;;;;7.01;84.28;99519.22;5045098;28;20309;-62
2022/12/22 12:58:54;;;;;;;1.00;1.00;;;;;;;7.08;83.66;99508.06;5047710;28;20204;-62
2022/12/22 13:01:58;;;;;;;0.60;0.60;;;;;;;7.08;84.42;99515.72;5049481;28;20236;-62
2022/12/22 13:05:14;;;;;;;0.60;0.60;;;;;;;7.02;83.12;99520.91;5050516;28;20200;-62
2022/12/22 13:08:15;;;;;;;0.67;0.67;;;;;;;7.03;83.46;99521.75;5050835;28;20196;-62
2022/12/22 13:10:48;;;;;;;0.50;0.50;;;;;;;7.10;83.76;99519.13;5049001;28;20443;-65
2022/12/22 13:13:44;;;;;;;0.60;0.60;;;;;;;7.39;83.14;99527.19;5049520;28;20255;-65
2022/12/22 13:16:26;;;;;;;0.60;0.60;;;;;;;7.42;80.39;99515.22;5045186;28;20213;-65
2022/12/22 13:18:57;;;;;;;0.70;0.70;;;;;;;7.53;79.93;99533.78;5045886;28;20197;-65
2022/12/22 13:21:27;;;;;;;0.47;0.47;;;;;;;7.48;80.38;99507.47;5047532;28;20212;-65
2022/12/22 13:24:01;;;;;;;0.60;0.60;;;;;;;7.49;80.33;99527.03;5047968;28;20692;-65
2022/12/22 13:26:33;;;;;;;0.97;0.97;;;;;;;7.62;81.45;99523.41;5049268;28;20557;-66
2022/12/22 13:29:03;;;;;;;0.60;0.60;;;;;;;7.66;80.36;99525.03;5050289;28;20204;-65
2022/12/22 13:31:35;;;;;;;0.80;0.80;;;;;;;7.71;79.91;99513.06;5049887;28;20193;-65
2022/12/22 13:34:07;;;;;;;0.53;0.53;;;;;;;7.80;80.51;99512.88;5050767;28;20196;-66
2022/12/22 13:36:36;;;;;;;0.73;0.73;;;;;;;7.77;80.87;99518.03;5050641;28;20360;-66
2022/12/22 13:39:11;;;;;;;0.50;0.50;;;;;;;7.78;82.07;99519.75;5046833;28;20258;-65
2022/12/22 13:41:40;;;;;;;0.90;0.90;;;;;;;7.72;82.70;99505.34;5047495;28;20258;-65
2022/12/22 13:44:10;;;;;;;0.60;0.60;;;;;;;7.73;82.99;99516.41;5050404;28;20688;-65
2022/12/22 13:46:38;;;;;;;0.60;0.60;;;;;;;7.65;83.13;99508.06;5049560;28;20212;-66
2022/12/22 13:49:09;;;;;;;0.70;0.70;;;;;;;7.65;83.42;99513.16;5043985;28;20192;-65
2022/12/22 13:51:38;;;;;;;0.63;0.63;;;;;;;7.66;84.17;99509.72;5049505;28;20679;-65
2022/12/22 13:54:16;;;;;;;0.70;0.70;;;;;;;7.67;83.31;99512.25;5050128;28;20254;-65
2022/12/22 13:56:46;;;;;;;0.57;0.57;;;;;;;7.64;83.34;99506.38;5053257;28;20546;-66
2022/12/22 13:59:26;;;;;;;0.40;0.40;;;;;;;7.75;83.46;99509.59;5051225;28;20204;-65
2022/12/22 14:01:59;;;;;;;0.63;0.63;;;;;;;7.67;83.10;99503.75;5049531;28;20718;-66
2022/12/22 14:04:26;;;;;;;0.60;0.60;;;;;;;7.47;83.21;99488.78;5049109;28;20615;-66
2022/12/22 14:06:53;;;;;;;0.80;0.80;;;;;;;7.54;84.18;99512.47;5050957;28;20220;-66
2022/12/22 14:09:24;;;;;;;0.70;0.70;;;;;;;7.47;84.29;99498.13;5049122;28;20919;-66
2022/12/22 14:11:55;;;;;;;0.60;0.60;;;;;;;7.38;84.16;99497.44;5053176;28;20295;-67
2022/12/22 14:14:26;;;;;;;0.77;0.77;;;;;;;7.42;84.62;99499.94;5052404;28;20212;-67
2022/12/22 14:16:55;;;;;;;0.80;0.80;;;;;;;7.35;84.66;99497.47;5054091;28;20224;-64
2022/12/22 14:19:23;;;;;;;1.00;1.00;;;;;;;7.38;84.95;99502.53;5053557;28;20204;-64
2022/12/22 14:22:03;;;;;;;0.60;0.60;;;;;;;7.34;85.04;99498.34;5053606;28;20197;-65
2022/12/22 14:24:41;;;;;;;0.50;0.50;;;;;;;7.43;85.03;99506.72;5053755;28;20567;-66
2022/12/22 14:27:18;;;;;;;0.60;0.60;;;;;;;7.39;87.89;99481.28;5053404;28;20270;-66
2022/12/22 14:29:45;;;;;;;0.50;0.50;;;;;;;7.57;87.10;99499.66;5053672;28;20196;-65
2022/12/22 14:32:38;;;;;;;0.57;0.57;;;;;;;7.60;86.72;99495.38;5052605;28;20200;-65
2022/12/22 14:35:27;;;;;;;0.50;0.50;;;;;;;7.63;86.46;99502.13;5050838;28;20235;-65
2022/12/22 14:37:55;;;;;;;0.50;0.50;;;;;;;7.62;86.00;99497.91;5053146;28;20817;-65
2022/12/22 14:40:32;;;;;;;0.60;0.60;;;;;;;7.54;86.23;99482.72;5053150;28;20209;-65
2022/12/22 14:43:01;;;;;;;0.53;0.53;;;;;;;7.62;86.38;99487.69;5046467;28;20573;-65
2022/12/22 14:45:28;;;;;;;0.50;0.50;;;;;;;7.53;86.26;99487.84;5053048;28;20622;-65
2022/12/22 14:47:56;;;;;;;0.90;0.90;;;;;;;7.56;86.68;99498.00;5053396;28;20204;-65
2022/12/22 14:50:24;;;;;;;1.00;1.00;;;;;;;7.53;86.83;99492.97;5053265;28;20785;-65
2022/12/22 14:52:54;;;;;;;0.87;0.87;;;;;;;7.53;86.85;99487.84;5053498;28;20193;-65
2022/12/22 14:55:26;;;;;;;1.03;1.03;;;;;;;7.47;87.13;99498.13;5053286;28;20216;-65
2022/12/22 14:57:58;;;;;;;0.53;0.53;;;;;;;7.37;86.76;99493.19;5050189;28;20197;-66
2022/12/22 15:00:34;;;;;;;0.93;0.93;;;;;;;7.31;87.73;99500.94;5051992;28;20205;-68
2022/12/22 15:03:03;;;;;;;0.90;0.90;;;;;;;7.21;87.96;99486.63;5050394;28;20227;-66
2022/12/22 15:05:34;;;;;;;2.03;2.00;;;;;;;7.20;88.26;99490.06;5051879;28;20205;-66
2022/12/22 15:08:01;;;;;;;0.87;0.73;;;;;;;7.16;88.50;99493.53;5049961;28;20726;-66
2022/12/22 15:10:35;;;;;;;0.60;0.60;;;;;;;7.10;88.93;99498.72;5050818;28;20980;-66
2022/12/22 15:13:07;;;;;;;0.90;0.90;;;;;;;7.05;89.02;99500.47;5050536;28;20197;-66
2022/12/22 15:15:34;;;;;;;0.87;0.80;;;;;;;7.00;88.68;99494.63;5051143;28;20600;-66
2022/12/22 15:18:01;;;;;;;0.60;0.60;;;;;;;6.80;88.96;99479.59;5051572;28;20204;-66
2022/12/22 15:20:29;;;;;;;4.67;1.17;;;;;;;6.88;89.38;99492.25;5051545;28;20201;-66
2022/12/22 15:22:56;;;;;;;0.60;0.60;;;;;;;6.84;89.38;99498.25;5051376;28;20299;-66
2022/12/22 15:25:24;;;;;;;0.70;0.70;;;;;;;6.77;89.17;99500.03;5051342;28;20200;-65
2022/12/22 15:27:52;;;;;;;0.43;0.43;;;;;;;6.72;89.74;99500.97;5052136;28;20200;-66
2022/12/22 15:30:21;;;;;;;1.03;1.03;;;;;;;6.66;89.69;99498.47;5050597;28;20236;-65
2022/12/22 15:32:49;;;;;;;0.60;0.60;;;;;;;6.60;89.51;99498.53;5050069;28;20200;-65
2022/12/22 15:35:22;;;;;;;0.87;0.87;;;;;;;6.55;89.59;99492.69;5051830;28;20224;-66
2022/12/22 15:37:49;;;;;;;1.50;1.50;;;;;;;6.48;90.19;99502.09;5047869;28;20204;-65